createdAt,value
2022-10-12T00:05:37.529Z,13.40
2022-10-12T00:18:06.052Z,13.60
2022-10-12T00:24:00.745Z,13.70
2022-10-12T00:47:41.744Z,13.80
2022-10-12T00:59:38.123Z,13.80
2022-10-12T01:11:16.358Z,13.80
2022-10-12T02:55:16.886Z,13.40
2022-10-12T03:21:09.024Z,13.60
2022-10-12T03:34:02.322Z,13.60
2022-10-12T04:04:07.453Z,13.50
2022-10-12T04:49:18.156Z,13.50
2022-10-12T04:54:01.637Z,13.50
2022-10-12T04:58:45.132Z,13.40
2022-10-12T05:03:28.621Z,13.40
2022-10-12T05:08:13.655Z,13.40
2022-10-12T05:12:58.281Z,13.40
2022-10-12T05:17:41.731Z,13.50
2022-10-12T05:22:25.225Z,13.40
2022-10-12T05:27:10.316Z,13.50
2022-10-12T05:31:53.773Z,13.50
2022-10-12T05:36:37.252Z,13.50
2022-10-12T05:41:20.756Z,13.40
2022-10-12T05:46:05.953Z,13.40
2022-10-12T05:50:49.565Z,13.40
2022-10-12T05:55:33.048Z,13.40
2022-10-12T06:00:17.162Z,13.50
2022-10-12T06:05:02.241Z,13.60
2022-10-12T06:09:47.772Z,13.60
2022-10-12T06:14:31.753Z,13.60
2022-10-12T06:19:15.299Z,13.70
2022-10-12T06:24:00.207Z,13.70
2022-10-12T06:28:44.578Z,13.80
2022-10-12T06:33:28.826Z,13.90
2022-10-12T06:38:12.270Z,13.90
2022-10-12T06:42:58.690Z,14.00
2022-10-12T06:47:42.364Z,14.10
2022-10-12T06:52:25.807Z,14.20
2022-10-12T06:57:09.640Z,14.20
2022-10-12T07:01:54.636Z,14.30
2022-10-12T07:06:38.101Z,14.40
2022-10-12T07:11:21.592Z,14.60
2022-10-12T07:16:05.144Z,14.60
2022-10-12T07:20:50.110Z,14.60
2022-10-12T07:25:33.870Z,14.80
2022-10-12T07:30:17.600Z,14.90
2022-10-12T07:35:01.052Z,14.80
2022-10-12T07:39:45.919Z,15.00
2022-10-12T07:44:30.688Z,15.10
2022-10-12T07:49:15.192Z,15.60
2022-10-12T07:54:00.356Z,15.80
2022-10-12T07:58:49.420Z,16.00
2022-10-12T08:03:32.913Z,16.10
2022-10-12T08:08:16.402Z,16.30
2022-10-12T08:12:59.840Z,16.40
2022-10-12T08:17:44.755Z,16.30
2022-10-12T08:22:28.172Z,16.10
2022-10-12T08:27:11.602Z,16.10
2022-10-12T08:31:55.091Z,16.00
2022-10-12T08:36:40.291Z,15.90
2022-10-12T08:41:44.337Z,16.00
2022-10-12T08:46:29.465Z,16.50
2022-10-12T08:51:17.702Z,16.60
2022-10-12T08:56:02.681Z,16.50
2022-10-12T09:00:48.915Z,16.60
2022-10-12T09:05:38.491Z,16.80
2022-10-12T09:10:34.145Z,17.10
2022-10-12T09:15:23.695Z,17.70
2022-10-12T09:20:18.015Z,18.00
2022-10-12T09:25:03.294Z,18.00
2022-10-12T09:29:48.796Z,17.90
2022-10-12T09:34:33.829Z,17.90
2022-10-12T09:39:23.415Z,17.80
2022-10-12T09:44:14.767Z,17.80
2022-10-12T09:48:59.871Z,17.90
2022-10-12T09:53:52.992Z,17.90
2022-10-12T09:58:50.776Z,18.00
2022-10-12T10:03:34.408Z,18.10
2022-10-12T10:08:21.302Z,18.20
2022-10-12T10:13:06.846Z,18.30
2022-10-12T10:17:54.213Z,18.20
2022-10-12T10:22:37.780Z,18.30
2022-10-12T10:27:34.158Z,18.50
2022-10-12T10:32:27.097Z,18.70
2022-10-12T10:37:19.839Z,19.10
2022-10-12T10:42:12.738Z,19.30
2022-10-12T10:46:59.157Z,19.00
2022-10-12T10:51:49.580Z,18.90
2022-10-12T10:56:33.925Z,19.10
2022-10-12T11:01:25.617Z,20.00
2022-10-12T11:06:20.839Z,20.20
2022-10-12T11:11:11.201Z,20.40
2022-10-12T11:15:59.715Z,21.50
2022-10-12T11:20:53.179Z,23.30
2022-10-12T11:25:45.647Z,24.60
2022-10-12T11:30:45.019Z,26.50
2022-10-12T11:35:31.843Z,27.70
2022-10-12T11:40:27.049Z,25.90
2022-10-12T11:45:28.563Z,24.70
2022-10-12T11:50:26.523Z,26.70
2022-10-12T11:55:27.967Z,27.60
2022-10-12T12:00:22.945Z,26.00
2022-10-12T12:05:16.243Z,23.70
2022-10-12T12:10:01.720Z,24.90
2022-10-12T12:15:08.849Z,24.90
2022-10-12T12:19:52.834Z,25.50
2022-10-12T12:24:39.039Z,25.90
2022-10-12T12:29:28.048Z,24.40
2022-10-12T12:34:16.488Z,25.80
2022-10-12T12:39:00.196Z,26.30
2022-10-12T12:44:06.271Z,26.30
2022-10-12T12:49:02.607Z,27.00
2022-10-12T12:53:50.284Z,26.20
2022-10-12T12:58:52.675Z,26.20
2022-10-12T13:03:56.289Z,24.90
2022-10-12T13:09:06.896Z,24.80
2022-10-12T13:14:02.300Z,24.00
2022-10-12T13:18:51.420Z,23.90
2022-10-12T13:23:36.015Z,24.80
2022-10-12T13:28:24.308Z,23.60
2022-10-12T13:33:17.207Z,22.90
2022-10-12T13:38:07.281Z,22.20
2022-10-12T13:42:50.771Z,22.00
2022-10-12T13:47:43.148Z,22.20
2022-10-12T13:52:32.078Z,22.80
2022-10-12T13:57:22.371Z,22.60
2022-10-12T14:02:19.587Z,22.20
2022-10-12T14:07:07.836Z,20.60
2022-10-12T14:11:52.848Z,20.70
2022-10-12T14:16:36.375Z,19.70
2022-10-12T14:21:25.804Z,19.70
2022-10-12T14:26:27.224Z,19.40
2022-10-12T14:31:10.764Z,19.30
2022-10-12T14:36:13.162Z,19.00
2022-10-12T14:40:56.758Z,18.50
2022-10-12T14:45:42.385Z,18.50
2022-10-12T14:50:25.819Z,18.30
2022-10-12T14:55:16.620Z,18.30
2022-10-12T15:00:00.355Z,17.90
2022-10-12T15:04:45.681Z,18.10
2022-10-12T15:09:29.140Z,18.50
2022-10-12T15:14:14.608Z,18.30
2022-10-12T15:18:58.288Z,18.60
2022-10-12T15:23:43.436Z,20.00
2022-10-12T15:28:28.023Z,21.40
2022-10-12T15:33:12.798Z,22.20
2022-10-12T15:37:57.907Z,22.30
2022-10-12T15:42:43.243Z,22.50
2022-10-12T15:47:26.687Z,22.20
2022-10-12T15:52:12.206Z,23.20
2022-10-12T15:56:55.931Z,22.80
2022-10-12T16:01:43.414Z,22.20
2022-10-12T16:06:26.874Z,21.30
2022-10-12T16:11:14.037Z,20.00
2022-10-12T16:15:57.533Z,18.20
2022-10-12T16:20:42.769Z,17.70
2022-10-12T16:25:27.671Z,17.40
2022-10-12T16:30:12.244Z,17.00
2022-10-12T16:34:55.997Z,16.80
2022-10-12T16:39:41.097Z,16.60
2022-10-12T16:44:24.568Z,16.50
2022-10-12T16:49:08.089Z,16.40
2022-10-12T16:53:51.518Z,16.20
2022-10-12T16:58:36.404Z,16.20
2022-10-12T17:03:19.889Z,16.10
2022-10-12T17:08:03.342Z,16.00
2022-10-12T17:12:46.882Z,15.90
2022-10-12T17:17:31.760Z,16.00
2022-10-12T17:22:16.118Z,16.00
2022-10-12T17:27:02.904Z,15.90
2022-10-12T17:31:47.971Z,15.90
2022-10-12T17:36:33.912Z,15.80
2022-10-12T17:41:18.380Z,15.80
2022-10-12T17:46:02.870Z,15.80
2022-10-12T17:50:46.861Z,15.90
2022-10-12T17:55:48.084Z,15.90
2022-10-12T18:00:32.820Z,15.90
2022-10-12T18:05:19.975Z,15.80
2022-10-12T18:10:04.362Z,15.80
2022-10-12T18:14:49.977Z,15.70
2022-10-12T18:19:37.954Z,15.60
2022-10-12T18:24:24.589Z,15.50
2022-10-12T18:29:09.220Z,15.50
2022-10-12T18:33:54.939Z,15.40
2022-10-12T18:38:40.368Z,15.20
2022-10-12T18:43:24.879Z,15.20
2022-10-12T18:48:09.589Z,15.20
2022-10-12T18:52:55.782Z,15.30
2022-10-12T18:57:41.098Z,15.30
2022-10-12T19:02:26.150Z,15.40
2022-10-12T19:07:10.617Z,15.20
2022-10-12T19:11:56.261Z,15.20
2022-10-12T19:16:40.720Z,15.20
2022-10-12T19:21:26.356Z,15.20
2022-10-12T19:26:13.271Z,15.10
2022-10-12T19:31:00.312Z,15.10
2022-10-12T19:35:45.709Z,15.30
2022-10-12T19:40:30.430Z,15.30
2022-10-12T19:45:14.727Z,15.20
2022-10-12T19:50:01.873Z,15.30
2022-10-12T19:54:46.841Z,15.40
2022-10-12T19:59:32.663Z,15.20
2022-10-12T20:04:17.233Z,15.20
2022-10-12T20:09:04.293Z,15.20
2022-10-12T20:13:50.049Z,15.20
2022-10-12T20:18:34.873Z,15.10
2022-10-12T20:23:19.140Z,14.90
2022-10-12T20:28:04.296Z,15.00
2022-10-12T20:32:51.882Z,14.80
2022-10-12T20:37:38.206Z,14.70
2022-10-12T20:42:22.439Z,14.70
2022-10-12T20:47:07.489Z,14.70
2022-10-12T20:51:51.033Z,14.70
2022-10-12T20:56:35.100Z,14.80
2022-10-12T21:01:18.940Z,14.80
2022-10-12T21:06:09.891Z,14.80
2022-10-12T21:10:53.386Z,14.90
2022-10-12T21:15:36.852Z,14.70
2022-10-12T21:20:20.432Z,14.70
2022-10-12T21:25:05.899Z,14.70
2022-10-12T21:29:49.371Z,14.70
2022-10-12T21:34:32.831Z,14.60
2022-10-12T21:39:18.102Z,14.70
2022-10-12T21:44:03.188Z,14.70
2022-10-12T21:48:47.043Z,14.70
2022-10-12T21:53:31.470Z,14.70
2022-10-12T21:58:14.951Z,14.80
2022-10-12T22:03:00.014Z,14.80
2022-10-12T22:07:44.252Z,14.80
2022-10-12T22:12:27.904Z,14.80
2022-10-12T22:17:11.389Z,14.70
2022-10-12T22:21:57.544Z,14.60
2022-10-12T22:26:41.363Z,14.60
2022-10-12T22:31:25.826Z,14.60
2022-10-12T22:36:12.578Z,14.50
2022-10-12T22:40:58.416Z,14.40
2022-10-12T22:45:41.873Z,14.30
2022-10-12T22:50:25.369Z,14.20
2022-10-12T22:55:09.873Z,13.90
2022-10-12T22:59:54.925Z,13.90
2022-10-12T23:04:38.375Z,13.50
2022-10-12T23:09:21.895Z,13.30
2022-10-12T23:14:05.475Z,13.00
2022-10-12T23:18:58.222Z,12.90
2022-10-12T23:23:44.232Z,12.70
2022-10-12T23:28:28.068Z,12.80
2022-10-12T23:33:11.574Z,12.70
2022-10-12T23:37:56.458Z,12.50
2022-10-12T23:42:39.945Z,12.10
2022-10-12T23:47:23.416Z,12.00
2022-10-12T23:52:07.153Z,12.00
2022-10-12T23:56:52.022Z,12.00
